sensor_id;sensor_type;location;lat;lon;timestamp;temperature;humidity
15413;DHT22;7805;49.554;7.632;2022-12-07T00:01:37;5.20;99.90
15413;DHT22;7805;49.554;7.632;2022-12-07T00:04:09;5.20;99.90
15413;DHT22;7805;49.554;7.632;2022-12-07T00:06:40;5.30;99.90
15413;DHT22;7805;49.554;7.632;2022-12-07T00:09:07;5.30;99.90
15413;DHT22;7805;49.554;7.632;2022-12-07T00:11:34;5.30;99.90
15413;DHT22;7805;49.554;7.632;2022-12-07T00:14:03;5.30;99.90
15413;DHT22;7805;49.554;7.632;2022-12-07T00:16:31;5.30;99.90
15413;DHT22;7805;49.554;7.632;2022-12-07T00:18:57;5.30;99.90
15413;DHT22;7805;49.554;7.632;2022-12-07T00:21:26;5.30;99.90
15413;DHT22;7805;49.554;7.632;2022-12-07T00:23:54;5.30;99.90
15413;DHT22;7805;49.554;7.632;2022-12-07T00:26:21;5.30;99.90
15413;DHT22;7805;49.554;7.632;2022-12-07T00:28:49;5.30;99.90
15413;DHT22;7805;49.554;7.632;2022-12-07T00:31:16;5.40;99.90
15413;DHT22;7805;49.554;7.632;2022-12-07T00:33:42;5.40;99.90
15413;DHT22;7805;49.554;7.632;2022-12-07T00:36:12;5.40;99.90
15413;DHT22;7805;49.554;7.632;2022-12-07T00:38:39;5.30;99.90
15413;DHT22;7805;49.554;7.632;2022-12-07T00:41:12;5.20;99.90
15413;DHT22;7805;49.554;7.632;2022-12-07T00:43:39;5.30;99.90
15413;DHT22;7805;49.554;7.632;2022-12-07T00:46:05;5.30;99.90
15413;DHT22;7805;49.554;7.632;2022-12-07T00:48:30;5.20;99.90
15413;DHT22;7805;49.554;7.632;2022-12-07T00:50:56;5.20;99.90
15413;DHT22;7805;49.554;7.632;2022-12-07T00:53:22;5.30;99.90
15413;DHT22;7805;49.554;7.632;2022-12-07T00:55:48;5.30;99.90
15413;DHT22;7805;49.554;7.632;2022-12-07T00:58:14;5.30;99.90
15413;DHT22;7805;49.554;7.632;2022-12-07T01:00:41;5.40;99.90
15413;DHT22;7805;49.554;7.632;2022-12-07T01:03:09;5.40;99.90
15413;DHT22;7805;49.554;7.632;2022-12-07T01:05:35;5.40;99.90
15413;DHT22;7805;49.554;7.632;2022-12-07T01:08:01;5.40;99.90
15413;DHT22;7805;49.554;7.632;2022-12-07T01:10:27;5.40;99.90
15413;DHT22;7805;49.554;7.632;2022-12-07T01:12:53;5.30;99.90
15413;DHT22;7805;49.554;7.632;2022-12-07T01:15:18;5.10;99.90
15413;DHT22;7805;49.554;7.632;2022-12-07T01:17:44;5.10;99.90
15413;DHT22;7805;49.554;7.632;2022-12-07T01:20:10;5.00;99.90
15413;DHT22;7805;49.554;7.632;2022-12-07T01:22:40;5.00;99.90
15413;DHT22;7805;49.554;7.632;2022-12-07T01:25:07;5.00;99.90
15413;DHT22;7805;49.554;7.632;2022-12-07T01:27:34;4.90;99.90
15413;DHT22;7805;49.554;7.632;2022-12-07T01:30:00;4.90;99.90
15413;DHT22;7805;49.554;7.632;2022-12-07T01:32:26;4.90;99.90
15413;DHT22;7805;49.554;7.632;2022-12-07T01:34:52;5.00;99.90
15413;DHT22;7805;49.554;7.632;2022-12-07T01:37:17;5.00;99.90
15413;DHT22;7805;49.554;7.632;2022-12-07T01:39:43;5.00;99.90
15413;DHT22;7805;49.554;7.632;2022-12-07T01:42:12;5.10;99.90
15413;DHT22;7805;49.554;7.632;2022-12-07T01:47:53;5.10;99.90
15413;DHT22;7805;49.554;7.632;2022-12-07T01:50:21;5.10;99.90
15413;DHT22;7805;49.554;7.632;2022-12-07T01:52:50;5.10;99.90
15413;DHT22;7805;49.554;7.632;2022-12-07T01:55:18;5.10;99.90
15413;DHT22;7805;49.554;7.632;2022-12-07T01:57:47;5.10;99.90
15413;DHT22;7805;49.554;7.632;2022-12-07T02:00:14;5.10;99.90
15413;DHT22;7805;49.554;7.632;2022-12-07T02:02:48;5.20;99.90
15413;DHT22;7805;49.554;7.632;2022-12-07T02:05:16;5.20;99.90
15413;DHT22;7805;49.554;7.632;2022-12-07T02:07:42;5.20;99.90
15413;DHT22;7805;49.554;7.632;2022-12-07T02:10:17;5.20;99.90
15413;DHT22;7805;49.554;7.632;2022-12-07T02:12:46;5.20;99.90
15413;DHT22;7805;49.554;7.632;2022-12-07T02:15:13;5.10;99.90
15413;DHT22;7805;49.554;7.632;2022-12-07T02:20:17;5.00;99.90
15413;DHT22;7805;49.554;7.632;2022-12-07T02:30:48;4.70;99.90
15413;DHT22;7805;49.554;7.632;2022-12-07T02:36:04;4.70;99.90
15413;DHT22;7805;49.554;7.632;2022-12-07T02:38:51;4.80;99.90
15413;DHT22;7805;49.554;7.632;2022-12-07T02:41:22;4.80;99.90
15413;DHT22;7805;49.554;7.632;2022-12-07T02:44:01;4.90;99.90
15413;DHT22;7805;49.554;7.632;2022-12-07T02:46:31;4.90;99.90
15413;DHT22;7805;49.554;7.632;2022-12-07T02:48:58;5.00;99.90
15413;DHT22;7805;49.554;7.632;2022-12-07T02:51:25;5.00;99.90
15413;DHT22;7805;49.554;7.632;2022-12-07T02:53:51;4.90;99.90
15413;DHT22;7805;49.554;7.632;2022-12-07T03:08:11;5.10;99.90
15413;DHT22;7805;49.554;7.632;2022-12-07T03:19:02;5.10;99.90
15413;DHT22;7805;49.554;7.632;2022-12-07T03:21:32;5.00;99.90
15413;DHT22;7805;49.554;7.632;2022-12-07T03:24:00;5.00;99.90
15413;DHT22;7805;49.554;7.632;2022-12-07T03:26:33;4.90;99.90
15413;DHT22;7805;49.554;7.632;2022-12-07T03:29:04;4.90;99.90
15413;DHT22;7805;49.554;7.632;2022-12-07T03:31:35;4.90;99.90
15413;DHT22;7805;49.554;7.632;2022-12-07T03:34:28;5.00;99.90
15413;DHT22;7805;49.554;7.632;2022-12-07T03:37:02;5.00;99.90
15413;DHT22;7805;49.554;7.632;2022-12-07T03:39:45;6.90;99.90
15413;DHT22;7805;49.554;7.632;2022-12-07T03:42:11;5.00;99.90
15413;DHT22;7805;49.554;7.632;2022-12-07T03:44:38;5.10;99.90
15413;DHT22;7805;49.554;7.632;2022-12-07T03:50:14;5.20;99.90
15413;DHT22;7805;49.554;7.632;2022-12-07T03:55:52;5.20;99.90
15413;DHT22;7805;49.554;7.632;2022-12-07T03:58:21;5.10;99.90
15413;DHT22;7805;49.554;7.632;2022-12-07T04:00:48;5.10;99.90
15413;DHT22;7805;49.554;7.632;2022-12-07T04:03:14;5.20;99.90
15413;DHT22;7805;49.554;7.632;2022-12-07T04:05:41;5.10;99.90
15413;DHT22;7805;49.554;7.632;2022-12-07T04:08:07;5.10;99.90
15413;DHT22;7805;49.554;7.632;2022-12-07T04:10:32;5.20;99.90
15413;DHT22;7805;49.554;7.632;2022-12-07T04:12:58;5.00;99.90
15413;DHT22;7805;49.554;7.632;2022-12-07T04:15:24;5.00;99.90
15413;DHT22;7805;49.554;7.632;2022-12-07T04:17:49;5.10;99.90
15413;DHT22;7805;49.554;7.632;2022-12-07T04:20:16;5.10;99.90
15413;DHT22;7805;49.554;7.632;2022-12-07T04:22:41;5.00;99.90
15413;DHT22;7805;49.554;7.632;2022-12-07T04:25:07;5.00;99.90
15413;DHT22;7805;49.554;7.632;2022-12-07T04:27:34;5.10;99.90
15413;DHT22;7805;49.554;7.632;2022-12-07T04:30:00;5.20;99.90
15413;DHT22;7805;49.554;7.632;2022-12-07T04:32:25;5.20;99.90
15413;DHT22;7805;49.554;7.632;2022-12-07T04:34:51;5.20;99.90
15413;DHT22;7805;49.554;7.632;2022-12-07T04:37:16;5.10;99.90
15413;DHT22;7805;49.554;7.632;2022-12-07T04:39:42;5.10;99.90
15413;DHT22;7805;49.554;7.632;2022-12-07T04:42:10;5.10;99.90
15413;DHT22;7805;49.554;7.632;2022-12-07T04:44:35;4.90;99.90
15413;DHT22;7805;49.554;7.632;2022-12-07T04:47:01;5.00;99.90
15413;DHT22;7805;49.554;7.632;2022-12-07T04:49:27;6.90;99.90
15413;DHT22;7805;49.554;7.632;2022-12-07T04:51:53;4.90;99.90
15413;DHT22;7805;49.554;7.632;2022-12-07T04:54:19;5.00;99.90
15413;DHT22;7805;49.554;7.632;2022-12-07T04:56:44;5.00;99.90
15413;DHT22;7805;49.554;7.632;2022-12-07T04:59:14;5.10;99.90
15413;DHT22;7805;49.554;7.632;2022-12-07T05:01:41;5.20;99.90
15413;DHT22;7805;49.554;7.632;2022-12-07T05:04:07;5.20;99.90
15413;DHT22;7805;49.554;7.632;2022-12-07T05:06:33;5.20;99.90
15413;DHT22;7805;49.554;7.632;2022-12-07T05:08:59;5.30;99.90
15413;DHT22;7805;49.554;7.632;2022-12-07T05:11:24;5.30;99.90
15413;DHT22;7805;49.554;7.632;2022-12-07T05:14:18;7.20;99.90
15413;DHT22;7805;49.554;7.632;2022-12-07T05:16:46;5.30;99.90
15413;DHT22;7805;49.554;7.632;2022-12-07T05:19:12;5.30;99.90
15413;DHT22;7805;49.554;7.632;2022-12-07T05:21:38;5.30;99.90
15413;DHT22;7805;49.554;7.632;2022-12-07T05:24:04;5.40;99.90
15413;DHT22;7805;49.554;7.632;2022-12-07T05:26:31;5.40;99.90
15413;DHT22;7805;49.554;7.632;2022-12-07T05:28:57;5.30;99.90
15413;DHT22;7805;49.554;7.632;2022-12-07T05:31:24;5.30;99.90
15413;DHT22;7805;49.554;7.632;2022-12-07T05:33:50;5.40;99.90
15413;DHT22;7805;49.554;7.632;2022-12-07T05:36:15;5.40;99.90
15413;DHT22;7805;49.554;7.632;2022-12-07T05:38:41;5.40;99.90
15413;DHT22;7805;49.554;7.632;2022-12-07T05:41:08;5.30;99.90
15413;DHT22;7805;49.554;7.632;2022-12-07T05:43:53;5.20;99.90
15413;DHT22;7805;49.554;7.632;2022-12-07T05:46:19;5.20;99.90
15413;DHT22;7805;49.554;7.632;2022-12-07T05:48:45;5.20;99.90
15413;DHT22;7805;49.554;7.632;2022-12-07T05:51:10;5.20;99.90
15413;DHT22;7805;49.554;7.632;2022-12-07T05:53:36;5.40;99.90
15413;DHT22;7805;49.554;7.632;2022-12-07T05:56:01;5.30;99.90
15413;DHT22;7805;49.554;7.632;2022-12-07T05:58:27;5.40;99.90
15413;DHT22;7805;49.554;7.632;2022-12-07T06:01:11;5.40;99.90
15413;DHT22;7805;49.554;7.632;2022-12-07T06:03:36;5.50;99.90
15413;DHT22;7805;49.554;7.632;2022-12-07T06:06:02;5.40;99.90
15413;DHT22;7805;49.554;7.632;2022-12-07T06:08:28;5.40;99.90
15413;DHT22;7805;49.554;7.632;2022-12-07T06:10:53;5.40;99.90
15413;DHT22;7805;49.554;7.632;2022-12-07T06:13:39;5.40;99.90
15413;DHT22;7805;49.554;7.632;2022-12-07T06:16:05;5.20;99.90
15413;DHT22;7805;49.554;7.632;2022-12-07T06:18:30;5.30;99.90
15413;DHT22;7805;49.554;7.632;2022-12-07T06:20:56;5.20;99.90
15413;DHT22;7805;49.554;7.632;2022-12-07T06:23:21;5.30;99.90
15413;DHT22;7805;49.554;7.632;2022-12-07T06:25:47;5.30;99.90
15413;DHT22;7805;49.554;7.632;2022-12-07T06:28:13;5.30;99.90
15413;DHT22;7805;49.554;7.632;2022-12-07T06:30:38;5.40;99.90
15413;DHT22;7805;49.554;7.632;2022-12-07T06:33:04;5.40;99.90
15413;DHT22;7805;49.554;7.632;2022-12-07T06:35:29;5.40;99.90
15413;DHT22;7805;49.554;7.632;2022-12-07T06:37:57;5.20;99.90
15413;DHT22;7805;49.554;7.632;2022-12-07T06:40:22;5.30;99.90
15413;DHT22;7805;49.554;7.632;2022-12-07T06:42:48;5.30;99.90
15413;DHT22;7805;49.554;7.632;2022-12-07T06:45:13;5.40;99.90
15413;DHT22;7805;49.554;7.632;2022-12-07T06:47:39;5.40;99.90
15413;DHT22;7805;49.554;7.632;2022-12-07T06:50:05;5.50;99.90
15413;DHT22;7805;49.554;7.632;2022-12-07T06:52:33;5.50;99.90
15413;DHT22;7805;49.554;7.632;2022-12-07T06:54:58;5.40;99.90
15413;DHT22;7805;49.554;7.632;2022-12-07T06:57:25;5.30;99.90
15413;DHT22;7805;49.554;7.632;2022-12-07T06:59:50;5.40;99.90
15413;DHT22;7805;49.554;7.632;2022-12-07T07:02:16;5.40;99.90
15413;DHT22;7805;49.554;7.632;2022-12-07T07:04:42;5.30;99.90
15413;DHT22;7805;49.554;7.632;2022-12-07T07:07:07;5.40;99.90
15413;DHT22;7805;49.554;7.632;2022-12-07T07:09:33;5.40;99.90
15413;DHT22;7805;49.554;7.632;2022-12-07T07:11:59;5.40;99.90
15413;DHT22;7805;49.554;7.632;2022-12-07T07:14:24;5.30;99.90
15413;DHT22;7805;49.554;7.632;2022-12-07T07:16:50;5.40;99.90
15413;DHT22;7805;49.554;7.632;2022-12-07T07:19:15;5.50;99.90
15413;DHT22;7805;49.554;7.632;2022-12-07T07:21:41;5.50;99.90
15413;DHT22;7805;49.554;7.632;2022-12-07T07:24:07;5.50;99.90
15413;DHT22;7805;49.554;7.632;2022-12-07T07:26:32;5.50;99.90
15413;DHT22;7805;49.554;7.632;2022-12-07T07:28:58;4.70;99.90
15413;DHT22;7805;49.554;7.632;2022-12-07T07:31:23;5.70;99.90
15413;DHT22;7805;49.554;7.632;2022-12-07T07:33:49;5.70;99.90
15413;DHT22;7805;49.554;7.632;2022-12-07T07:36:14;5.70;99.90
15413;DHT22;7805;49.554;7.632;2022-12-07T07:38:40;5.70;99.90
15413;DHT22;7805;49.554;7.632;2022-12-07T07:41:05;5.60;99.90
15413;DHT22;7805;49.554;7.632;2022-12-07T07:43:32;5.60;99.90
15413;DHT22;7805;49.554;7.632;2022-12-07T07:45:57;5.60;99.90
15413;DHT22;7805;49.554;7.632;2022-12-07T07:48:23;5.60;99.90
15413;DHT22;7805;49.554;7.632;2022-12-07T07:50:50;5.70;99.90
15413;DHT22;7805;49.554;7.632;2022-12-07T07:53:16;5.60;99.90
15413;DHT22;7805;49.554;7.632;2022-12-07T07:55:41;5.70;99.90
15413;DHT22;7805;49.554;7.632;2022-12-07T07:58:14;5.80;99.90
15413;DHT22;7805;49.554;7.632;2022-12-07T08:00:40;5.70;99.90
15413;DHT22;7805;49.554;7.632;2022-12-07T08:03:06;5.70;99.90
15413;DHT22;7805;49.554;7.632;2022-12-07T08:05:31;5.70;99.90
15413;DHT22;7805;49.554;7.632;2022-12-07T08:07:57;5.80;99.90
15413;DHT22;7805;49.554;7.632;2022-12-07T08:10:23;5.90;99.90
15413;DHT22;7805;49.554;7.632;2022-12-07T08:12:48;6.00;99.90
15413;DHT22;7805;49.554;7.632;2022-12-07T08:15:33;6.00;99.90
15413;DHT22;7805;49.554;7.632;2022-12-07T08:17:58;6.10;99.90
15413;DHT22;7805;49.554;7.632;2022-12-07T08:20:24;6.00;99.90
15413;DHT22;7805;49.554;7.632;2022-12-07T08:22:49;6.10;99.90
15413;DHT22;7805;49.554;7.632;2022-12-07T08:25:15;6.10;99.90
15413;DHT22;7805;49.554;7.632;2022-12-07T08:27:41;6.20;99.90
15413;DHT22;7805;49.554;7.632;2022-12-07T08:30:08;6.40;99.90
15413;DHT22;7805;49.554;7.632;2022-12-07T08:32:33;6.80;99.90
15413;DHT22;7805;49.554;7.632;2022-12-07T08:34:59;6.90;99.90
15413;DHT22;7805;49.554;7.632;2022-12-07T08:37:24;6.80;99.90
15413;DHT22;7805;49.554;7.632;2022-12-07T08:39:50;6.80;99.90
15413;DHT22;7805;49.554;7.632;2022-12-07T08:42:15;6.80;99.90
15413;DHT22;7805;49.554;7.632;2022-12-07T08:44:41;6.70;99.90
15413;DHT22;7805;49.554;7.632;2022-12-07T08:47:07;6.70;99.90
15413;DHT22;7805;49.554;7.632;2022-12-07T08:49:37;6.60;99.90
15413;DHT22;7805;49.554;7.632;2022-12-07T08:52:05;6.70;99.90
15413;DHT22;7805;49.554;7.632;2022-12-07T08:54:31;6.90;99.90
15413;DHT22;7805;49.554;7.632;2022-12-07T08:56:58;7.00;99.90
15413;DHT22;7805;49.554;7.632;2022-12-07T08:59:24;7.30;99.90
15413;DHT22;7805;49.554;7.632;2022-12-07T09:01:49;7.50;99.90
15413;DHT22;7805;49.554;7.632;2022-12-07T09:04:15;7.90;99.90
15413;DHT22;7805;49.554;7.632;2022-12-07T09:06:41;8.80;99.90
15413;DHT22;7805;49.554;7.632;2022-12-07T09:09:07;9.60;99.90
15413;DHT22;7805;49.554;7.632;2022-12-07T09:11:34;10.10;99.90
15413;DHT22;7805;49.554;7.632;2022-12-07T09:14:00;11.00;99.90
15413;DHT22;7805;49.554;7.632;2022-12-07T09:16:25;12.30;99.90
15413;DHT22;7805;49.554;7.632;2022-12-07T09:18:51;13.30;99.90
15413;DHT22;7805;49.554;7.632;2022-12-07T09:21:16;14.20;99.90
15413;DHT22;7805;49.554;7.632;2022-12-07T09:23:42;14.90;99.90
15413;DHT22;7805;49.554;7.632;2022-12-07T09:26:08;15.50;99.90
15413;DHT22;7805;49.554;7.632;2022-12-07T09:28:34;15.10;99.90
15413;DHT22;7805;49.554;7.632;2022-12-07T09:30:59;15.30;99.90
15413;DHT22;7805;49.554;7.632;2022-12-07T09:33:25;14.70;98.50
15413;DHT22;7805;49.554;7.632;2022-12-07T09:35:51;14.00;99.90
15413;DHT22;7805;49.554;7.632;2022-12-07T09:38:18;13.20;99.90
15413;DHT22;7805;49.554;7.632;2022-12-07T09:40:44;12.30;99.90
15413;DHT22;7805;49.554;7.632;2022-12-07T09:43:19;11.50;99.90
15413;DHT22;7805;49.554;7.632;2022-12-07T09:45:47;10.60;99.90
15413;DHT22;7805;49.554;7.632;2022-12-07T09:48:18;10.30;99.90
15413;DHT22;7805;49.554;7.632;2022-12-07T09:50:45;9.60;99.90
15413;DHT22;7805;49.554;7.632;2022-12-07T09:53:33;8.50;99.90
15413;DHT22;7805;49.554;7.632;2022-12-07T09:56:00;8.20;99.90
15413;DHT22;7805;49.554;7.632;2022-12-07T09:58:28;8.10;99.90
15413;DHT22;7805;49.554;7.632;2022-12-07T10:03:36;8.00;99.90
15413;DHT22;7805;49.554;7.632;2022-12-07T10:06:04;7.70;99.90
15413;DHT22;7805;49.554;7.632;2022-12-07T10:08:30;7.80;99.90
15413;DHT22;7805;49.554;7.632;2022-12-07T10:10:56;7.80;99.90
15413;DHT22;7805;49.554;7.632;2022-12-07T10:13:35;7.80;99.90
15413;DHT22;7805;49.554;7.632;2022-12-07T10:16:01;8.00;99.90
15413;DHT22;7805;49.554;7.632;2022-12-07T10:18:42;8.00;99.90
15413;DHT22;7805;49.554;7.632;2022-12-07T10:23:34;8.00;99.90
15413;DHT22;7805;49.554;7.632;2022-12-07T10:26:20;7.90;99.90
15413;DHT22;7805;49.554;7.632;2022-12-07T10:28:47;8.00;99.90
15413;DHT22;7805;49.554;7.632;2022-12-07T10:31:19;8.00;99.90
15413;DHT22;7805;49.554;7.632;2022-12-07T10:33:51;8.10;99.90
15413;DHT22;7805;49.554;7.632;2022-12-07T10:36:23;8.20;99.90
15413;DHT22;7805;49.554;7.632;2022-12-07T10:38:52;6.10;99.90
15413;DHT22;7805;49.554;7.632;2022-12-07T10:41:18;8.40;99.90
15413;DHT22;7805;49.554;7.632;2022-12-07T10:43:54;8.40;99.90
15413;DHT22;7805;49.554;7.632;2022-12-07T10:46:26;8.40;99.90
15413;DHT22;7805;49.554;7.632;2022-12-07T10:51:51;8.70;99.90
15413;DHT22;7805;49.554;7.632;2022-12-07T10:56:56;8.90;99.90
15413;DHT22;7805;49.554;7.632;2022-12-07T11:02:25;9.10;99.90
15413;DHT22;7805;49.554;7.632;2022-12-07T11:05:26;9.30;99.90
15413;DHT22;7805;49.554;7.632;2022-12-07T11:08:17;9.50;99.90
15413;DHT22;7805;49.554;7.632;2022-12-07T11:10:54;9.80;99.90
15413;DHT22;7805;49.554;7.632;2022-12-07T11:21:53;9.40;99.90
15413;DHT22;7805;49.554;7.632;2022-12-07T11:24:30;9.20;99.90
15413;DHT22;7805;49.554;7.632;2022-12-07T11:27:19;9.10;99.90
15413;DHT22;7805;49.554;7.632;2022-12-07T11:30:08;8.90;99.90
15413;DHT22;7805;49.554;7.632;2022-12-07T11:32:53;8.80;99.90
15413;DHT22;7805;49.554;7.632;2022-12-07T11:38:17;8.70;99.90
15413;DHT22;7805;49.554;7.632;2022-12-07T11:40:48;9.00;99.90
15413;DHT22;7805;49.554;7.632;2022-12-07T11:45:44;9.30;99.90
15413;DHT22;7805;49.554;7.632;2022-12-07T11:48:43;9.90;99.90
15413;DHT22;7805;49.554;7.632;2022-12-07T11:51:12;10.10;99.90
15413;DHT22;7805;49.554;7.632;2022-12-07T11:54:26;10.10;99.90
15413;DHT22;7805;49.554;7.632;2022-12-07T11:56:51;10.10;99.90
15413;DHT22;7805;49.554;7.632;2022-12-07T11:59:33;10.30;99.90
15413;DHT22;7805;49.554;7.632;2022-12-07T12:02:14;10.50;99.90
15413;DHT22;7805;49.554;7.632;2022-12-07T12:04:54;10.40;99.90
15413;DHT22;7805;49.554;7.632;2022-12-07T12:07:23;10.20;99.90
15413;DHT22;7805;49.554;7.632;2022-12-07T12:09:56;9.90;99.90
15413;DHT22;7805;49.554;7.632;2022-12-07T12:20:45;9.40;99.90
15413;DHT22;7805;49.554;7.632;2022-12-07T12:25:45;9.40;99.90
15413;DHT22;7805;49.554;7.632;2022-12-07T12:33:58;9.20;99.90
15413;DHT22;7805;49.554;7.632;2022-12-07T12:47:01;9.80;99.90
15413;DHT22;7805;49.554;7.632;2022-12-07T12:54:38;9.30;99.90
15413;DHT22;7805;49.554;7.632;2022-12-07T12:57:31;9.30;99.90
15413;DHT22;7805;49.554;7.632;2022-12-07T13:00:00;9.30;99.90
15413;DHT22;7805;49.554;7.632;2022-12-07T13:04:59;8.90;99.90
15413;DHT22;7805;49.554;7.632;2022-12-07T13:15:46;8.50;99.90
15413;DHT22;7805;49.554;7.632;2022-12-07T13:20:59;8.50;99.90
15413;DHT22;7805;49.554;7.632;2022-12-07T13:23:29;8.40;99.90
15413;DHT22;7805;49.554;7.632;2022-12-07T13:26:16;8.40;99.90
15413;DHT22;7805;49.554;7.632;2022-12-07T13:28:51;8.40;99.90
15413;DHT22;7805;49.554;7.632;2022-12-07T13:33:54;8.40;99.90
15413;DHT22;7805;49.554;7.632;2022-12-07T13:36:43;8.40;99.90
15413;DHT22;7805;49.554;7.632;2022-12-07T13:39:22;8.40;99.90
15413;DHT22;7805;49.554;7.632;2022-12-07T13:41:59;8.30;99.90
15413;DHT22;7805;49.554;7.632;2022-12-07T13:44:27;8.30;99.90
15413;DHT22;7805;49.554;7.632;2022-12-07T13:47:13;8.30;99.90
15413;DHT22;7805;49.554;7.632;2022-12-07T13:49:55;8.20;99.90
15413;DHT22;7805;49.554;7.632;2022-12-07T13:52:36;7.90;99.90
15413;DHT22;7805;49.554;7.632;2022-12-07T13:55:17;7.90;99.90
15413;DHT22;7805;49.554;7.632;2022-12-07T13:57:44;7.90;99.90
15413;DHT22;7805;49.554;7.632;2022-12-07T14:00:29;7.90;99.90
15413;DHT22;7805;49.554;7.632;2022-12-07T14:03:02;8.00;99.90
15413;DHT22;7805;49.554;7.632;2022-12-07T14:05:28;8.00;99.90
15413;DHT22;7805;49.554;7.632;2022-12-07T14:08:00;8.00;99.90
15413;DHT22;7805;49.554;7.632;2022-12-07T14:15:56;8.10;99.90
15413;DHT22;7805;49.554;7.632;2022-12-07T14:18:38;8.20;99.90
15413;DHT22;7805;49.554;7.632;2022-12-07T14:23:42;7.90;99.90
15413;DHT22;7805;49.554;7.632;2022-12-07T14:28:39;7.90;99.90
15413;DHT22;7805;49.554;7.632;2022-12-07T14:33:39;7.90;99.90
15413;DHT22;7805;49.554;7.632;2022-12-07T14:36:05;8.20;99.90
15413;DHT22;7805;49.554;7.632;2022-12-07T14:38:31;8.40;99.90
15413;DHT22;7805;49.554;7.632;2022-12-07T14:40:56;8.70;99.90
15413;DHT22;7805;49.554;7.632;2022-12-07T14:43:45;8.50;99.90
15413;DHT22;7805;49.554;7.632;2022-12-07T14:46:10;8.40;99.90
15413;DHT22;7805;49.554;7.632;2022-12-07T14:48:36;8.30;99.90
15413;DHT22;7805;49.554;7.632;2022-12-07T14:51:02;8.30;99.90
15413;DHT22;7805;49.554;7.632;2022-12-07T14:53:35;8.10;99.90
15413;DHT22;7805;49.554;7.632;2022-12-07T14:56:02;7.90;99.90
15413;DHT22;7805;49.554;7.632;2022-12-07T14:58:30;7.70;99.90
15413;DHT22;7805;49.554;7.632;2022-12-07T15:00:56;7.50;99.90
15413;DHT22;7805;49.554;7.632;2022-12-07T15:03:22;7.40;99.90
15413;DHT22;7805;49.554;7.632;2022-12-07T15:05:47;7.40;99.90
15413;DHT22;7805;49.554;7.632;2022-12-07T15:08:13;7.30;99.90
15413;DHT22;7805;49.554;7.632;2022-12-07T15:10:39;7.20;99.90
15413;DHT22;7805;49.554;7.632;2022-12-07T15:13:05;7.20;99.90
15413;DHT22;7805;49.554;7.632;2022-12-07T15:15:51;7.20;99.90
15413;DHT22;7805;49.554;7.632;2022-12-07T15:18:18;7.30;99.90
15413;DHT22;7805;49.554;7.632;2022-12-07T15:20:44;7.30;99.90
15413;DHT22;7805;49.554;7.632;2022-12-07T15:23:11;5.90;99.90
15413;DHT22;7805;49.554;7.632;2022-12-07T15:25:40;7.30;99.90
15413;DHT22;7805;49.554;7.632;2022-12-07T15:28:05;8.70;99.90
15413;DHT22;7805;49.554;7.632;2022-12-07T15:30:31;7.40;99.90
15413;DHT22;7805;49.554;7.632;2022-12-07T15:32:56;7.40;99.90
15413;DHT22;7805;49.554;7.632;2022-12-07T15:35:22;5.50;99.90
15413;DHT22;7805;49.554;7.632;2022-12-07T15:37:47;7.40;99.90
15413;DHT22;7805;49.554;7.632;2022-12-07T15:40:13;7.40;99.90
15413;DHT22;7805;49.554;7.632;2022-12-07T15:42:40;7.30;99.90
15413;DHT22;7805;49.554;7.632;2022-12-07T15:45:07;7.30;99.90
15413;DHT22;7805;49.554;7.632;2022-12-07T15:47:39;7.20;99.90
15413;DHT22;7805;49.554;7.632;2022-12-07T15:50:07;7.20;99.90
15413;DHT22;7805;49.554;7.632;2022-12-07T15:52:33;7.10;99.90
15413;DHT22;7805;49.554;7.632;2022-12-07T15:54:59;7.10;99.90
15413;DHT22;7805;49.554;7.632;2022-12-07T15:57:26;7.10;99.90
15413;DHT22;7805;49.554;7.632;2022-12-07T15:59:52;7.10;99.90
15413;DHT22;7805;49.554;7.632;2022-12-07T16:02:17;7.10;99.90
15413;DHT22;7805;49.554;7.632;2022-12-07T16:04:43;7.00;99.90
15413;DHT22;7805;49.554;7.632;2022-12-07T16:07:09;7.00;99.90
15413;DHT22;7805;49.554;7.632;2022-12-07T16:09:36;6.90;99.90
15413;DHT22;7805;49.554;7.632;2022-12-07T16:12:02;6.90;99.90
15413;DHT22;7805;49.554;7.632;2022-12-07T16:14:28;7.10;99.90
15413;DHT22;7805;49.554;7.632;2022-12-07T16:16:53;7.20;99.90
15413;DHT22;7805;49.554;7.632;2022-12-07T16:19:19;7.20;99.90
15413;DHT22;7805;49.554;7.632;2022-12-07T16:21:44;7.20;99.90
15413;DHT22;7805;49.554;7.632;2022-12-07T16:24:10;7.10;99.90
15413;DHT22;7805;49.554;7.632;2022-12-07T16:26:36;7.00;99.90
15413;DHT22;7805;49.554;7.632;2022-12-07T16:29:02;7.00;99.90
15413;DHT22;7805;49.554;7.632;2022-12-07T16:31:28;6.70;99.90
15413;DHT22;7805;49.554;7.632;2022-12-07T16:33:56;6.50;99.90
15413;DHT22;7805;49.554;7.632;2022-12-07T16:36:22;6.40;99.90
15413;DHT22;7805;49.554;7.632;2022-12-07T16:38:50;6.50;99.90
15413;DHT22;7805;49.554;7.632;2022-12-07T16:41:15;6.40;99.90
15413;DHT22;7805;49.554;7.632;2022-12-07T16:43:41;6.50;99.90
15413;DHT22;7805;49.554;7.632;2022-12-07T16:46:07;6.50;99.90
15413;DHT22;7805;49.554;7.632;2022-12-07T16:48:38;6.50;99.90
15413;DHT22;7805;49.554;7.632;2022-12-07T16:51:06;6.50;99.90
15413;DHT22;7805;49.554;7.632;2022-12-07T16:53:34;7.10;99.90
15413;DHT22;7805;49.554;7.632;2022-12-07T16:55:59;6.50;99.90
15413;DHT22;7805;49.554;7.632;2022-12-07T16:58:25;6.50;99.90
15413;DHT22;7805;49.554;7.632;2022-12-07T17:00:50;6.40;99.90
15413;DHT22;7805;49.554;7.632;2022-12-07T17:03:16;6.40;99.90
15413;DHT22;7805;49.554;7.632;2022-12-07T17:05:43;4.40;99.90
15413;DHT22;7805;49.554;7.632;2022-12-07T17:08:10;6.30;99.90
15413;DHT22;7805;49.554;7.632;2022-12-07T17:10:38;6.30;99.90
15413;DHT22;7805;49.554;7.632;2022-12-07T17:13:05;6.30;99.90
15413;DHT22;7805;49.554;7.632;2022-12-07T17:15:56;6.20;99.90
15413;DHT22;7805;49.554;7.632;2022-12-07T17:18:21;6.10;99.90
15413;DHT22;7805;49.554;7.632;2022-12-07T17:20:47;6.20;99.90
15413;DHT22;7805;49.554;7.632;2022-12-07T17:23:12;6.20;99.90
15413;DHT22;7805;49.554;7.632;2022-12-07T17:25:38;6.20;99.90
15413;DHT22;7805;49.554;7.632;2022-12-07T17:28:04;6.30;99.90
15413;DHT22;7805;49.554;7.632;2022-12-07T17:30:29;6.30;99.90
15413;DHT22;7805;49.554;7.632;2022-12-07T17:32:55;6.30;99.90
15413;DHT22;7805;49.554;7.632;2022-12-07T17:35:21;6.30;99.90
15413;DHT22;7805;49.554;7.632;2022-12-07T17:37:46;6.30;99.90
15413;DHT22;7805;49.554;7.632;2022-12-07T17:40:13;6.30;99.90
15413;DHT22;7805;49.554;7.632;2022-12-07T17:42:38;6.30;99.90
15413;DHT22;7805;49.554;7.632;2022-12-07T17:45:12;6.30;99.90
15413;DHT22;7805;49.554;7.632;2022-12-07T17:47:38;6.30;99.90
15413;DHT22;7805;49.554;7.632;2022-12-07T17:50:06;6.30;99.90
15413;DHT22;7805;49.554;7.632;2022-12-07T17:52:32;6.20;99.90
15413;DHT22;7805;49.554;7.632;2022-12-07T17:55:16;6.10;99.90
15413;DHT22;7805;49.554;7.632;2022-12-07T17:57:42;6.00;99.90
15413;DHT22;7805;49.554;7.632;2022-12-07T18:00:08;6.10;99.90
15413;DHT22;7805;49.554;7.632;2022-12-07T18:02:36;6.00;99.90
15413;DHT22;7805;49.554;7.632;2022-12-07T18:05:01;6.00;99.90
15413;DHT22;7805;49.554;7.632;2022-12-07T18:07:27;5.90;99.90
15413;DHT22;7805;49.554;7.632;2022-12-07T18:09:52;6.00;99.90
15413;DHT22;7805;49.554;7.632;2022-12-07T18:12:18;6.00;99.90
15413;DHT22;7805;49.554;7.632;2022-12-07T18:14:43;6.00;99.90
15413;DHT22;7805;49.554;7.632;2022-12-07T18:17:09;6.00;99.90
15413;DHT22;7805;49.554;7.632;2022-12-07T18:19:34;6.10;99.90
15413;DHT22;7805;49.554;7.632;2022-12-07T18:22:02;6.10;99.90